createdAt,value
2016-08-01T12:43:26.817Z,10800
2016-08-01T12:43:35.786Z,10748
2016-08-01T12:44:35.812Z,10396
2016-08-01T12:45:35.840Z,10312
2016-08-01T12:46:35.860Z,10368
2016-08-01T12:47:35.881Z,10804
2016-08-01T12:48:35.910Z,10432
2016-08-01T20:14:13.615Z,0
2016-08-01T20:14:22.590Z,0
2016-08-01T20:15:22.595Z,0
2016-08-01T20:16:22.630Z,0
2016-08-01T20:17:22.641Z,0
2016-08-01T20:18:22.668Z,0
2016-08-01T20:19:22.675Z,0
2016-08-01T20:20:22.705Z,0
2016-08-01T20:21:22.712Z,0
2016-08-01T20:22:22.739Z,0
2016-08-01T20:23:22.768Z,0
2016-08-01T20:24:22.778Z,0
2016-08-01T20:25:22.798Z,0
2016-08-01T20:26:22.807Z,0
2016-08-01T20:27:22.829Z,0
2016-08-01T20:28:22.849Z,0
2016-08-01T20:29:22.891Z,0
2016-08-01T20:30:22.883Z,0
2016-08-01T20:31:22.903Z,0
2016-08-01T20:32:22.922Z,0
2016-08-01T20:33:22.939Z,0
2016-08-01T20:34:22.956Z,0
2016-08-01T20:35:22.991Z,0
2016-08-01T20:36:22.994Z,0
2016-08-01T20:37:23.012Z,0
2016-08-01T20:38:23.025Z,0
2016-08-01T20:39:23.065Z,0
2016-08-01T20:40:23.069Z,0
2016-08-01T20:41:23.090Z,0
2016-08-01T20:42:23.095Z,0
2016-08-01T20:43:23.113Z,0
2016-08-01T20:44:23.154Z,0
2016-08-01T20:45:23.169Z,0
2016-08-01T20:46:23.172Z,0
2016-08-01T20:47:23.197Z,0
2016-08-01T20:48:23.214Z,0
2016-08-01T20:49:24.076Z,0
2016-08-01T20:50:23.246Z,0
2016-08-01T20:51:23.272Z,0
2016-08-01T20:52:23.284Z,0
2016-08-01T20:53:23.307Z,0
2016-08-01T20:54:23.325Z,0
2016-08-01T20:55:23.352Z,0
2016-08-01T20:56:23.368Z,0
2016-08-01T20:57:23.386Z,0
2016-08-01T20:58:23.414Z,0
2016-08-01T20:59:23.425Z,0
2016-08-01T21:00:23.438Z,0
2016-08-01T21:01:23.455Z,0
2016-08-01T21:02:23.470Z,0
2016-08-01T21:03:23.507Z,0
2016-08-01T21:04:23.522Z,0
2016-08-01T21:05:23.535Z,0
2016-08-01T21:06:23.548Z,0
2016-08-01T21:07:23.573Z,0
2016-08-01T21:08:23.578Z,0
2016-08-01T21:09:23.600Z,0
2016-08-01T21:10:23.619Z,0
2016-08-01T21:11:23.635Z,0
2016-08-01T21:12:23.649Z,0
2016-08-01T21:13:23.670Z,0
2016-08-01T21:14:23.688Z,0
2016-08-01T21:15:23.710Z,0
2016-08-01T21:16:23.722Z,0
2016-08-01T21:17:23.757Z,0
2016-08-01T21:18:23.762Z,0
2016-08-01T21:19:23.781Z,0
2016-08-01T21:20:23.789Z,0
2016-08-01T21:21:23.815Z,0
2016-08-01T21:22:23.837Z,0
2016-08-01T21:23:23.861Z,0
2016-08-01T21:24:23.876Z,0
2016-08-01T21:25:23.891Z,0
2016-08-01T21:26:23.902Z,0
2016-08-01T21:27:23.934Z,0
2016-08-01T21:28:23.952Z,0
2016-08-01T21:29:23.970Z,0
2016-08-01T21:30:23.978Z,0
2016-08-01T21:31:23.997Z,0
2016-08-01T21:32:24.018Z,0
2016-08-01T21:33:24.034Z,0
2016-08-01T21:34:24.058Z,0
2016-08-01T21:35:24.067Z,0
2016-08-01T21:36:24.095Z,0
2016-08-01T21:37:24.108Z,0
2016-08-01T21:38:24.144Z,0
2016-08-01T21:39:24.147Z,0
2016-08-01T21:40:24.157Z,0
2016-08-01T21:41:24.189Z,0
2016-08-01T21:42:24.201Z,0
2016-08-01T21:43:24.225Z,0
2016-08-01T21:44:24.242Z,0
2016-08-01T21:45:24.265Z,0
2016-08-01T21:46:24.276Z,0
2016-08-01T21:47:24.297Z,0
2016-08-01T21:48:24.308Z,0
2016-08-01T21:49:24.338Z,0
2016-08-01T21:50:24.351Z,0
2016-08-01T21:51:24.363Z,0
2016-08-01T21:52:24.384Z,0
2016-08-01T21:53:24.410Z,0
2016-08-01T21:54:24.428Z,0
2016-08-01T21:55:24.444Z,0
2016-08-01T21:56:24.453Z,0
2016-08-01T21:57:24.474Z,0
2016-08-01T21:58:24.500Z,0
2016-08-01T21:59:24.509Z,0
2016-08-01T22:00:24.527Z,0
2016-08-01T22:01:24.549Z,0
2016-08-01T22:02:24.570Z,0
2016-08-01T22:03:24.587Z,0
2016-08-01T22:04:24.608Z,0
2016-08-01T22:05:24.633Z,0
2016-08-01T22:06:24.645Z,0
2016-08-01T22:07:24.672Z,0
2016-08-01T22:08:24.671Z,0
2016-08-01T22:09:24.699Z,0
2016-08-01T22:10:24.716Z,0
2016-08-01T22:11:24.739Z,0
2016-08-01T22:12:24.776Z,0
2016-08-01T22:13:24.770Z,0
2016-08-01T22:14:24.784Z,0
2016-08-01T22:15:24.807Z,0
2016-08-01T22:16:24.850Z,0
2016-08-01T22:17:24.847Z,0
2016-08-01T22:18:24.856Z,0
2016-08-01T22:19:24.875Z,0
2016-08-01T22:20:24.903Z,0
2016-08-01T22:21:24.923Z,0
2016-08-01T22:22:24.938Z,0
2016-08-01T22:23:25.026Z,0
2016-08-01T22:24:24.978Z,0
2016-08-01T22:25:24.995Z,0
2016-08-01T22:26:25.018Z,0
2016-08-01T22:27:25.024Z,0
2016-08-01T22:28:25.051Z,0
2016-08-01T22:29:25.067Z,0
2016-08-01T22:30:25.080Z,0
2016-08-01T22:31:25.111Z,0
2016-08-01T22:32:25.126Z,0
2016-08-01T22:33:25.140Z,0
2016-08-01T22:34:25.162Z,0
2016-08-01T22:35:25.179Z,0
2016-08-01T22:36:25.194Z,0
2016-08-01T22:37:25.216Z,0
2016-08-01T22:38:25.306Z,0
2016-08-01T22:39:25.247Z,0
2016-08-01T22:40:25.273Z,0
2016-08-01T22:41:25.296Z,0
2016-08-01T22:42:25.311Z,0
2016-08-01T22:43:25.341Z,0
2016-08-01T22:44:25.348Z,0
2016-08-01T22:45:25.357Z,0
2016-08-01T22:46:25.387Z,0
2016-08-01T22:47:25.395Z,0
2016-08-01T22:48:25.415Z,0
2016-08-01T22:49:25.436Z,0
2016-08-01T22:50:25.454Z,0
2016-08-01T22:51:25.475Z,0
2016-08-01T22:52:25.497Z,0
2016-08-01T22:53:25.606Z,0
2016-08-01T22:54:25.538Z,0
2016-08-01T22:55:25.546Z,0
2016-08-01T22:56:25.569Z,0
2016-08-01T22:57:25.593Z,0
2016-08-01T22:58:25.606Z,0
2016-08-01T22:59:25.628Z,0
2016-08-01T23:00:25.640Z,0
2016-08-01T23:01:25.656Z,0
2016-08-01T23:02:25.680Z,0
2016-08-01T23:03:25.695Z,0
2016-08-01T23:04:25.725Z,0
2016-08-01T23:05:25.726Z,0
2016-08-01T23:06:25.752Z,0
2016-08-01T23:07:25.765Z,0
2016-08-01T23:09:25.833Z,0
2016-08-01T23:10:25.823Z,0
2016-08-01T23:11:25.870Z,0
2016-08-01T23:12:25.861Z,0
2016-08-01T23:13:25.948Z,0
2016-08-01T23:14:25.916Z,0
2016-08-01T23:15:25.956Z,0
2016-08-01T23:16:25.944Z,0
2016-08-01T23:17:25.986Z,0
2016-08-01T23:18:25.976Z,0
2016-08-01T23:19:26.041Z,0
2016-08-01T23:20:26.014Z,0
2016-08-01T23:21:26.052Z,0
2016-08-01T23:22:26.056Z,0
2016-08-01T23:24:26.088Z,0
2016-08-01T23:25:26.114Z,0
2016-08-01T23:26:26.129Z,0
2016-08-01T23:27:26.137Z,0
2016-08-01T23:28:26.163Z,0
2016-08-01T23:29:26.178Z,0
2016-08-01T23:30:26.194Z,0
2016-08-01T23:31:26.214Z,0
2016-08-01T23:32:26.245Z,0
2016-08-01T23:33:26.248Z,0
2016-08-01T23:34:26.269Z,0
2016-08-01T23:35:26.294Z,0
2016-08-01T23:36:26.300Z,0
2016-08-01T23:37:26.327Z,0
2016-08-01T23:39:26.354Z,0
2016-08-01T23:40:26.379Z,0
2016-08-01T23:41:26.395Z,0
2016-08-01T23:42:26.422Z,0
2016-08-01T23:43:26.437Z,0
2016-08-01T23:44:26.458Z,0
2016-08-01T23:45:26.473Z,0
2016-08-01T23:46:26.486Z,0
2016-08-01T23:47:26.507Z,0
2016-08-01T23:48:26.536Z,0
2016-08-01T23:49:26.541Z,0
2016-08-01T23:50:26.564Z,0
2016-08-01T23:51:26.586Z,0
2016-08-01T23:52:26.609Z,0
2016-08-01T23:53:26.616Z,0
2016-08-01T23:54:26.639Z,0
2016-08-01T23:55:26.538Z,0
2016-08-01T23:56:26.682Z,0
2016-08-01T23:57:26.691Z,0
2016-08-01T23:58:26.716Z,0
2016-08-01T23:59:26.729Z,0
